Humidity-temperature Sensor

Selected Measurement Type: Air Temperature

 
Air Temperature [°C]     6 entries per hour
Showing data from 3/11/2022 (00:00:00 Z) to 3/8/2022 (00:01:00 Z)
Previous Next [ Day | 3-Days | 7-Days ]
First Last
Prev [ Day | 3-Days | 7-Days ] Next
First Last

Start Time:     :
End Time:     :     
Time (in GMT) :00 :50 :40 :30 :20 :10
Previous Next [ Day | 3-Days | 7-Days ]
First Last
Prev [ Day | 3-Days | 7-Days ] Next
First Last


123 => good data
MM => data is determined as missing
-- => data not received/configured
Back to Top Back to Top
3/11/2022 00:00 to 23:10 25.43 25.44 25.49 25.44 25.47 25.46
3/10/2022 23:00 to 22:10 25.48 25.45 25.41 25.53 25.38 25.47
3/10/2022 22:00 to 21:10 25.44 25.45 25.55 25.38 25.42 25.42
3/10/2022 21:00 to 20:10 25.40 25.44 25.45 25.46 25.37 25.40
3/10/2022 20:00 to 19:10 25.38 25.26 25.36 25.27 25.30 25.38
3/10/2022 19:00 to 18:10 25.38 25.31 25.45 25.36 25.39 25.37
3/10/2022 18:00 to 17:10 25.42 25.40 25.39 25.47 25.55 25.47
3/10/2022 17:00 to 16:10 25.41 25.42 25.29 25.29 25.25 25.34
3/10/2022 16:00 to 15:10 25.30 25.20 25.30 25.20 25.11 25.17
3/10/2022 15:00 to 14:10 25.20 25.17 25.18 25.12 25.10 25.11
3/10/2022 14:00 to 13:10 25.06 25.04 25.11 25.09 25.07 25.03
3/10/2022 13:00 to 12:10 25.10 25.12 25.13 25.15 25.14 25.13
3/10/2022 12:00 to 11:10 25.09 25.14 25.09 25.14 25.11 25.05
3/10/2022 11:00 to 10:10 25.02 25.05 25.07 24.92 24.93 25.02
3/10/2022 10:00 to 9:10 25.00 25.06 24.98 25.02 25.05 25.06
3/10/2022 09:00 to 8:10 25.10 25.14 25.12 25.14 25.18 25.23
3/10/2022 08:00 to 7:10 25.13 25.15 25.13 25.26 25.21 25.18
3/10/2022 07:00 to 6:10 25.12 24.95 24.78 25.30 25.30 25.32
3/10/2022 06:00 to 5:10 25.31 25.38 25.30 25.35 25.34 25.33
3/10/2022 05:00 to 4:10 25.33 25.33 25.27 25.25 25.21 25.08
3/10/2022 04:00 to 3:10 25.07 25.30 25.29 25.30 25.26 25.32
3/10/2022 03:00 to 2:10 25.33 25.33 25.33 25.35 25.35 25.38
3/10/2022 02:00 to 1:10 25.34 25.29 25.33 25.47 25.38 25.40
3/10/2022 01:00 to 0:10 25.36 25.41 25.45 25.33 25.32 25.13
3/10/2022 00:00 to 23:10 24.97 24.92 24.72 25.04 25.07 24.86
3/9/2022 23:00 to 22:10 24.86 25.02 25.07 25.24 25.41 25.41
3/9/2022 22:00 to 21:10 25.53 25.52 25.43 25.50 25.40 25.37
3/9/2022 21:00 to 20:10 25.35 25.42 25.44 25.30 25.33 25.20
3/9/2022 20:00 to 19:10 25.35 25.39 25.30 25.20 25.18 25.25
3/9/2022 19:00 to 18:10 25.14 25.21 25.27 25.36 25.28 25.35
3/9/2022 18:00 to 17:10 25.25 25.27 25.18 25.27 25.28 25.12
3/9/2022 17:00 to 16:10 25.07 25.01 24.87 24.82 24.78 24.73
3/9/2022 16:00 to 15:10 24.71 24.64 24.61 24.59 24.62 24.58
3/9/2022 15:00 to 14:10 24.56 24.63 24.54 24.52 24.52 24.61
3/9/2022 14:00 to 13:10 24.55 24.46 24.45 24.33 24.23 24.46
3/9/2022 13:00 to 12:10 24.45 24.42 24.47 24.58 24.52 24.53
3/9/2022 12:00 to 11:10 24.50 24.54 24.58 24.66 24.64 24.59
3/9/2022 11:00 to 10:10 24.56 24.68 24.62 24.52 24.78 24.87
3/9/2022 10:00 to 9:10 24.75 24.85 24.58 24.74 24.78 24.55
3/9/2022 09:00 to 8:10 24.44 24.62 24.90 25.05 25.04 25.00
3/9/2022 08:00 to 7:10 24.97 24.84 24.98 24.92 24.90 24.94
3/9/2022 07:00 to 6:10 24.94 24.93 24.96 24.93 25.09 24.97
3/9/2022 06:00 to 5:10 24.94 25.07 25.02 25.07 25.18 25.06
3/9/2022 05:00 to 4:10 25.15 25.16 25.19 25.10 25.10 25.07
3/9/2022 04:00 to 3:10 25.17 25.14 25.19 25.19 25.14 25.10
3/9/2022 03:00 to 2:10 25.14 25.08 25.07 25.06 25.15 25.09
3/9/2022 02:00 to 1:10 25.10 25.15 25.18 25.13 25.19 25.25
3/9/2022 01:00 to 0:10 25.08 25.20 25.16 25.22 25.18 25.17
3/9/2022 00:00 to 23:10 25.07 24.98 24.90 24.84 24.84 24.84
3/8/2022 23:00 to 22:10 24.68 24.62 24.93 24.45 24.35 24.20
3/8/2022 22:00 to 21:10 24.08 24.00 24.49 24.41 24.43 24.38
3/8/2022 21:00 to 20:10 25.05 25.11 25.03 25.11 25.13 25.01
3/8/2022 20:00 to 19:10 25.10 25.11 25.00 25.04 25.12 25.03
3/8/2022 19:00 to 18:10 25.05 25.01 25.00 24.98 25.07 24.98
3/8/2022 18:00 to 17:10 25.06 25.01 25.03 25.06 24.95 24.94
3/8/2022 17:00 to 16:10 25.03 24.97 24.99 24.95 24.84 24.77
3/8/2022 16:00 to 15:10 24.49 24.57 24.26 24.26 24.79 24.75
3/8/2022 15:00 to 14:10 24.74 24.75 24.76 24.74 24.68 24.68
3/8/2022 14:00 to 13:10 24.68 24.66 24.65 24.63 24.66 24.57
3/8/2022 13:00 to 12:10 24.52 24.55 24.55 24.49 24.44 24.47
3/8/2022 12:00 to 11:10 24.51 24.53 24.58 24.56 24.54 24.56
3/8/2022 11:00 to 10:10 24.49 24.56 24.48 24.45 24.49 24.53
3/8/2022 10:00 to 9:10 24.55 24.52 24.48 24.62 24.56 24.58
3/8/2022 09:00 to 8:10 24.65 24.67 24.62 24.72 24.71 24.67
3/8/2022 08:00 to 7:10 24.73 24.70 24.72 24.74 24.76 24.81
3/8/2022 07:00 to 6:10 24.83 24.82 24.85 24.83 24.90 24.94
3/8/2022 06:00 to 5:10 24.87 24.85 24.80 24.83 24.95 24.87
3/8/2022 05:00 to 4:10 24.93 24.87 24.88 24.86 24.84 24.81
3/8/2022 04:00 to 3:10 24.93 24.93 24.85 24.95 24.90 24.91
3/8/2022 03:00 to 2:10 24.90 24.88 24.91 24.88 24.90 25.06
3/8/2022 02:00 to 1:10 25.06 25.08 25.17 25.05 25.08 25.13
3/8/2022 01:00 to 0:10 25.07 25.01 24.90 25.06 25.05 25.04